Chang Sheng — 3EWY6 — position and weather

sailwx.info

Track history (hours):
 
Tides and Currents Weather Stations Pressure Air Temp Water Temp Dewpoint Dewpoint Depression Visibility Wind Speed Wind Dir Waves Ship Positions

Chang Sheng

Last reported at 2018-Jun-22 22:59 UTC. Time now 2018-Jun-22 23:00 UTC.
Position N 33°03' W 125°22'.

Length 225 m; draft 7.2 m.

Type: Cargo ship. MMSI: 352723000.

Date/timePositionNaut miles runAvg speedWind from/ knotsBaromVisibWave heightAir tempDewpointWater temp
2018-Jun-22 22:59N 33°03' W 125°22'912.4
2018-Jun-22 22:13N 33°11' W 125°27'612.2
2018-Jun-22 21:42N 33°17' W 125°30'1312.6
2018-Jun-22 20:39N 33°29' W 125°38'312.7
2018-Jun-22 20:26N 33°31' W 125°39'2412.5
2018-Jun-22 18:33N 33°52' W 125°52'112.1
2018-Jun-22 18:30N 33°52' W 125°53'912.3
2018-Jun-22 17:46N 34°01' W 125°57'312.3
2018-Jun-22 17:29N 34°04' W 125°59'612.3
2018-Jun-22 17:00N 34°09' W 126°03'712.3
2018-Jun-22 16:25N 34°15' W 126°07'612.6
2018-Jun-22 15:55N 34°21' W 126°10'512.9
2018-Jun-22 15:30N 34°25' W 126°13'712.7
2018-Jun-22 15:00N 34°31' W 126°17'712.7
2018-Jun-22 14:27N 34°37' W 126°21'612.6
2018-Jun-22 14:00N 34°42' W 126°24'712.6
2018-Jun-22 13:29N 34°48' W 126°27'612.5
2018-Jun-22 13:00N 34°54' W 126°31'612.5
2018-Jun-22 12:29N 34°59' W 126°34'612.7
2018-Jun-22 12:00N 35°05' W 126°38'1312.8
2018-Jun-22 11:01N 35°16' W 126°45'012.5
2018-Jun-22 11:00N 35°16' W 126°45'2512.9
2018-Jun-22 09:05N 35°38' W 126°59'112.8
2018-Jun-22 08:59N 35°39' W 126°60'5113.0
2018-Jun-22 05:02N 36°27' W 127°22'013.2
2018-Jun-22 05:00N 36°28' W 127°22'44912.7
2018-Jun-20 17:33N 43°46' W 129°30'18011.6
2018-Jun-20 02:05N 46°45' W 129°00'112.4
2018-Jun-20 02:00N 46°45' W 128°59'612.2
2018-Jun-20 01:29N 46°49' W 128°51'612.1
2018-Jun-20 01:00N 46°52' W 128°44'912.1
2018-Jun-20 00:17N 46°57' W 128°34'312.1
2018-Jun-20 00:00N 46°59' W 128°30'612.1
2018-Jun-19 23:29N 47°03' W 128°22'612.2
2018-Jun-19 23:00N 47°06' W 128°15'612.2
2018-Jun-19 22:30N 47°10' W 128°08'612.1
2018-Jun-19 22:00N 47°13' W 128°01'1012.1
2018-Jun-19 21:09N 47°19' W 127°48'312.2
2018-Jun-19 20:55N 47°21' W 127°45'512.2
2018-Jun-19 20:30N 47°24' W 127°39'612.3
2018-Jun-19 20:00N 47°28' W 127°31'612.2
2018-Jun-19 19:30N 47°31' W 127°24'612.2
2018-Jun-19 19:00N 47°35' W 127°17'612.4
2018-Jun-19 18:30N 47°38' W 127°09'1012.6
2018-Jun-19 17:45N 47°44' W 126°58'312.7
2018-Jun-19 17:30N 47°46' W 126°54'612.7
2018-Jun-19 17:00N 47°49' W 126°47'1112.4
2018-Jun-19 16:05N 47°56' W 126°33'112.4
2018-Jun-19 16:00N 47°57' W 126°31'912.3
2018-Jun-19 15:14N 48°02' W 126°20'312.3
2018-Jun-19 15:00N 48°04' W 126°17'812.1
2018-Jun-19 14:22N 48°08' W 126°07'412.2
2018-Jun-19 14:00N 48°11' W 126°02'712.1
2018-Jun-19 13:23N 48°15' W 125°53'511.9
2018-Jun-19 12:58N 48°18' W 125°46'511.6
2018-Jun-19 12:30N 48°21' W 125°40'611.7
2018-Jun-19 12:00N 48°25' W 125°33'612.1
2018-Jun-19 11:30N 48°28' W 125°26'612.3
2018-Jun-19 11:00N 48°31' W 125°17'612.4
2018-Jun-19 10:30N 48°31' W 125°08'712.6
2018-Jun-19 09:57N 48°31' W 124°58'612.5
2018-Jun-19 09:30N 48°31' W 124°49'612.3
2018-Jun-19 09:00N 48°30' W 124°40'612.5
2018-Jun-19 08:30N 48°27' W 124°31'612.7
2018-Jun-19 08:00N 48°25' W 124°23'612.5
2018-Jun-19 07:30N 48°22' W 124°14'612.2
2018-Jun-19 07:00N 48°20' W 124°05'612.1
2018-Jun-19 06:30N 48°18' W 123°57'611.9
2018-Jun-19 06:00N 48°17' W 123°48'711.6
2018-Jun-19 05:25N 48°16' W 123°38'10 7.9
2018-Jun-19 04:07N 48°22' W 123°25'3 7.4
2018-Jun-19 03:45N 48°23' W 123°22'2 7.4
2018-Jun-19 03:30N 48°23' W 123°19'4 8.6
2018-Jun-19 03:00N 48°25' W 123°13'611.1
2018-Jun-19 02:30N 48°30' W 123°12'5 9.9
2018-Jun-19 02:00N 48°35' W 123°14'510.9
2018-Jun-19 01:30N 48°40' W 123°16'5 9.8
2018-Jun-19 01:00N 48°44' W 123°10'610.6
2018-Jun-19 00:28N 48°46' W 123°03'4 9.1
2018-Jun-19 00:00N 48°51' W 123°03'612.3
2018-Jun-18 23:30N 48°55' W 123°10'612.5
2018-Jun-18 23:00N 48°59' W 123°17'712.9
2018-Jun-18 22:30N 49°04' W 123°23'712.9
2018-Jun-18 21:59N 49°11' W 123°22'12 9.9
2018-Jun-18 20:46N 49°19' W 123°08'2 9.0
2018-Jun-18 20:30N 49°18' W 123°05'1 2.8
2018-Jun-18 20:00N 49°18' W 123°03'0 0.0
2018-Jun-18 19:28N 49°18' W 123°03'0 0.0
2018-Jun-18 18:58N 49°18' W 123°03'0 0.0
2018-Jun-18 18:29N 49°18' W 123°03'0 0.0
2018-Jun-18 17:58N 49°18' W 123°03'0 0.0
2018-Jun-18 17:28N 49°18' W 123°03'0 0.0
2018-Jun-18 16:58N 49°18' W 123°03'0 0.0
2018-Jun-18 16:28N 49°18' W 123°03'0 0.0
2018-Jun-18 15:58N 49°18' W 123°03'0 0.0
2018-Jun-18 15:28N 49°18' W 123°03'0 0.0
2018-Jun-18 14:55N 49°18' W 123°03'0 0.0
2018-Jun-18 14:28N 49°18' W 123°03'0 0.0
2018-Jun-18 13:58N 49°18' W 123°03'0 0.0
2018-Jun-18 13:28N 49°18' W 123°03'0 0.0
2018-Jun-18 12:58N 49°18' W 123°03'0 0.0
2018-Jun-18 12:28N 49°18' W 123°03'0 0.0
2018-Jun-18 11:58N 49°18' W 123°03'0 0.0
2018-Jun-18 11:25N 49°18' W 123°03'0 0.0
2018-Jun-18 10:58N 49°18' W 123°03'0 0.0
2018-Jun-18 10:28N 49°18' W 123°03'0 0.0
2018-Jun-18 09:58N 49°18' W 123°03'0 0.0
2018-Jun-18 09:25N 49°18' W 123°03'0 0.0
2018-Jun-18 08:55N 49°18' W 123°03'0 0.0
2018-Jun-18 08:28N 49°18' W 123°03'0 0.0
2018-Jun-18 07:55N 49°18' W 123°03'0 0.0
2018-Jun-18 07:28N 49°18' W 123°03'0 0.0
2018-Jun-18 06:58N 49°18' W 123°03'0 0.0
2018-Jun-18 06:28N 49°18' W 123°03'0 0.0
2018-Jun-18 05:55N 49°18' W 123°03'0 0.0
2018-Jun-18 05:28N 49°18' W 123°03'0 0.0
2018-Jun-18 04:58N 49°18' W 123°03'0 0.0
2018-Jun-18 04:28N 49°18' W 123°03'0 0.0
2018-Jun-18 03:55N 49°18' W 123°03'0 0.0
2018-Jun-18 03:28N 49°18' W 123°03'0 0.0
2018-Jun-18 02:58N 49°18' W 123°03'0 0.0
2018-Jun-18 02:28N 49°18' W 123°03'0 0.0
2018-Jun-18 01:58N 49°18' W 123°03'0 0.0
2018-Jun-18 01:28N 49°18' W 123°03'0 0.0
2018-Jun-18 00:55N 49°18' W 123°03'0 0.0
2018-Jun-18 00:28N 49°18' W 123°03'0 0.0
2018-Jun-17 23:58N 49°18' W 123°03'0 0.0
2018-Jun-17 23:28N 49°18' W 123°03'0 0.0
2018-Jun-17 22:58N 49°18' W 123°03'0 0.0
2018-Jun-17 22:28N 49°18' W 123°03'0 0.0
2018-Jun-17 21:58N 49°18' W 123°03'0 0.0
2018-Jun-17 21:28N 49°18' W 123°03'0 0.0
2018-Jun-17 20:58N 49°18' W 123°03'0 0.0
2018-Jun-17 20:28N 49°18' W 123°03'0 0.0
2018-Jun-17 19:58N 49°18' W 123°03'0 0.0
2018-Jun-17 19:28N 49°18' W 123°03'0 0.0
2018-Jun-17 18:58N 49°18' W 123°03'0 0.0
2018-Jun-17 18:25N 49°18' W 123°03'0 0.0
2018-Jun-17 17:58N 49°18' W 123°03'0 0.0
2018-Jun-17 17:28N 49°18' W 123°03'0 0.0
2018-Jun-17 16:58N 49°18' W 123°03'0 0.0
2018-Jun-17 16:25N 49°18' W 123°03'0 0.0
2018-Jun-17 15:58N 49°18' W 123°03'0 0.0
2018-Jun-17 15:28N 49°18' W 123°03'0 0.0
2018-Jun-17 14:58N 49°18' W 123°03'0 0.0
2018-Jun-17 14:28N 49°18' W 123°03'0 0.0
2018-Jun-17 13:58N 49°18' W 123°03'0 0.0
2018-Jun-17 13:28N 49°18' W 123°03'0 0.0
2018-Jun-17 12:58N 49°18' W 123°03'0 0.0
2018-Jun-17 12:28N 49°18' W 123°03'0 0.0
2018-Jun-17 11:58N 49°18' W 123°03'0 0.0
2018-Jun-17 11:28N 49°18' W 123°03'0 0.0
2018-Jun-17 10:58N 49°18' W 123°03'0 0.0
2018-Jun-17 10:28N 49°18' W 123°03'0 0.0
2018-Jun-17 09:58N 49°18' W 123°03'0 0.0
2018-Jun-17 09:28N 49°18' W 123°03'0 0.0
2018-Jun-17 08:58N 49°18' W 123°03'0 0.0
2018-Jun-17 08:28N 49°18' W 123°03'0 0.0
2018-Jun-17 07:58N 49°18' W 123°03'0 0.0
2018-Jun-17 07:28N 49°18' W 123°03'0 0.0
2018-Jun-17 06:58N 49°18' W 123°03'0 0.0
2018-Jun-17 06:28N 49°18' W 123°03'0 0.0
2018-Jun-17 05:58N 49°18' W 123°03'0 0.0
2018-Jun-17 05:28N 49°18' W 123°03'0 0.0
2018-Jun-17 04:58N 49°18' W 123°03'0 0.0
2018-Jun-17 04:28N 49°18' W 123°03'0 0.0
2018-Jun-17 03:58N 49°18' W 123°03'0 0.0
2018-Jun-17 03:28N 49°18' W 123°03'0 0.0
2018-Jun-17 02:58N 49°18' W 123°03'0 0.0
2018-Jun-17 02:28N 49°18' W 123°03'0 0.0
2018-Jun-17 01:58N 49°18' W 123°03'0 0.0
2018-Jun-17 01:28N 49°18' W 123°03'0 0.0
2018-Jun-17 00:58N 49°18' W 123°03'0 0.0
2018-Jun-17 00:28N 49°18' W 123°03'0 0.0
2018-Jun-16 23:58N 49°18' W 123°03'0 0.0
2018-Jun-16 23:28N 49°18' W 123°03'0 0.0
2018-Jun-16 22:58N 49°18' W 123°03'0 0.0
2018-Jun-16 22:28N 49°18' W 123°03'0 0.0
2018-Jun-16 21:58N 49°18' W 123°03'0 0.0
2018-Jun-16 21:28N 49°18' W 123°03'0 0.0
2018-Jun-16 20:58N 49°18' W 123°03'0 0.0
2018-Jun-16 20:28N 49°18' W 123°03'0 0.0
2018-Jun-16 19:58N 49°18' W 123°03'0 0.0
2018-Jun-16 19:28N 49°18' W 123°03'0 0.0
2018-Jun-16 18:58N 49°18' W 123°03'0 0.0
2018-Jun-16 18:28N 49°18' W 123°03'0 0.0
2018-Jun-16 17:58N 49°18' W 123°03'0 0.0
2018-Jun-16 17:28N 49°18' W 123°03'0 0.0
2018-Jun-16 16:58N 49°18' W 123°03'0 0.0
2018-Jun-16 16:28N 49°18' W 123°03'0 0.0
2018-Jun-16 15:58N 49°18' W 123°03'0 0.0
2018-Jun-16 15:28N 49°18' W 123°03'0 0.0
2018-Jun-16 14:58N 49°18' W 123°03'0 0.0
2018-Jun-16 14:28N 49°18' W 123°03'0 0.0
2018-Jun-16 13:58N 49°18' W 123°03'0 0.0
2018-Jun-16 13:28N 49°18' W 123°03'0 0.0
2018-Jun-16 12:58N 49°18' W 123°03'0 0.0
2018-Jun-16 12:28N 49°18' W 123°03'0 0.0
2018-Jun-16 11:58N 49°18' W 123°03'0 0.0
2018-Jun-16 11:25N 49°18' W 123°03'0 0.0
2018-Jun-16 10:55N 49°18' W 123°03'0 0.0
2018-Jun-16 10:28N 49°18' W 123°03'0 0.0
2018-Jun-16 09:58N 49°18' W 123°03'0 0.0
2018-Jun-16 09:28N 49°18' W 123°03'0 0.0
2018-Jun-16 08:58N 49°18' W 123°03'0 0.0
2018-Jun-16 08:25N 49°18' W 123°03'0 0.0
2018-Jun-16 07:58N 49°18' W 123°03'0 0.0
2018-Jun-16 07:25N 49°18' W 123°03'0 0.0
2018-Jun-16 06:52N 49°18' W 123°03'0 0.0
2018-Jun-16 06:25N 49°18' W 123°03'0 0.0
2018-Jun-16 05:58N 49°18' W 123°03'0 0.0
2018-Jun-16 05:28N 49°18' W 123°03'0 0.0
2018-Jun-16 04:55N 49°18' W 123°03'0 0.0
2018-Jun-16 04:28N 49°18' W 123°03'0 0.0
2018-Jun-16 03:58N 49°18' W 123°03'0 0.0
2018-Jun-16 03:28N 49°18' W 123°03'0 0.0
2018-Jun-16 02:58N 49°18' W 123°03'0 0.0
2018-Jun-16 02:28N 49°18' W 123°03'0 0.0
2018-Jun-16 01:58N 49°18' W 123°03'0 0.0
2018-Jun-16 01:28N 49°18' W 123°03'0 0.0
2018-Jun-16 00:58N 49°18' W 123°03'0 0.0
2018-Jun-16 00:28N 49°18' W 123°03'0 0.0
2018-Jun-15 23:58N 49°18' W 123°03'0 0.0
2018-Jun-15 23:25N 49°18' W 123°03'0 0.0
2018-Jun-15 22:55N 49°18' W 123°03'0 0.0
2018-Jun-15 22:28N 49°18' W 123°03'0 0.0
2018-Jun-15 21:58N 49°18' W 123°03'0 0.0
2018-Jun-15 21:28N 49°18' W 123°03'0 0.0
2018-Jun-15 20:58N 49°18' W 123°03'0 0.0
2018-Jun-15 20:28N 49°18' W 123°03'0 0.0
2018-Jun-15 19:58N 49°18' W 123°03'0 0.0
2018-Jun-15 19:28N 49°18' W 123°03'0 0.0
2018-Jun-15 18:58N 49°18' W 123°03'0 0.0
2018-Jun-15 18:28N 49°18' W 123°03'0 0.0
2018-Jun-15 17:58N 49°18' W 123°03'0 0.0
2018-Jun-15 17:25N 49°18' W 123°03'0 0.0
2018-Jun-15 16:58N 49°18' W 123°03'0 0.0
2018-Jun-15 16:28N 49°18' W 123°03'0 0.0
2018-Jun-15 15:58N 49°18' W 123°03'0 0.0
2018-Jun-15 15:28N 49°18' W 123°03'0 0.0
2018-Jun-15 14:58N 49°18' W 123°03'0 0.0
2018-Jun-15 14:28N 49°18' W 123°03'0 0.0
2018-Jun-15 13:58N 49°18' W 123°03'0 0.0
2018-Jun-15 13:28N 49°18' W 123°03'0 0.0
2018-Jun-15 12:58N 49°18' W 123°03'0 0.0
2018-Jun-15 12:28N 49°18' W 123°03'0 0.0
2018-Jun-15 11:58N 49°18' W 123°03'0 0.0
2018-Jun-15 11:28N 49°18' W 123°03'0 0.0
2018-Jun-15 10:58N 49°18' W 123°03'0 0.0
2018-Jun-15 10:28N 49°18' W 123°03'0 0.0
2018-Jun-15 09:58N 49°18' W 123°03'0 0.0
2018-Jun-15 09:28N 49°18' W 123°03'0 0.0
2018-Jun-15 09:00N 49°18' W 123°03'1 2.2
2018-Jun-15 08:30N 49°18' W 123°05'4 7.6
2018-Jun-15 08:00N 49°19' W 123°10'2 4.1
2018-Jun-15 07:30N 49°17' W 123°13'0 0.0
2018-Jun-15 07:00N 49°17' W 123°13'0 0.1
2018-Jun-15 06:29N 49°17' W 123°13'0 0.0
2018-Jun-15 05:59N 49°17' W 123°13'0 0.0
2018-Jun-15 05:29N 49°17' W 123°13'0 0.1
2018-Jun-15 04:59N 49°17' W 123°13'0 0.2
2018-Jun-15 04:29N 49°17' W 123°13'0 0.0
2018-Jun-15 03:59N 49°17' W 123°13'0 0.1
2018-Jun-15 03:29N 49°17' W 123°13'0 0.2
2018-Jun-15 02:53N 49°17' W 123°13'0 0.1
2018-Jun-15 02:29N 49°17' W 123°13'0 0.0
2018-Jun-15 01:53N 49°17' W 123°13'0 0.0
2018-Jun-15 01:26N 49°17' W 123°13'0 0.0
2018-Jun-15 00:59N 49°17' W 123°13'0 0.0
2018-Jun-15 00:29N 49°17' W 123°13'0 0.1
2018-Jun-14 23:59N 49°17' W 123°13'0 0.1
2018-Jun-14 23:29N 49°17' W 123°13'0 0.2
2018-Jun-14 22:59N 49°17' W 123°13'0 0.1
2018-Jun-14 22:29N 49°17' W 123°13'0 0.2
2018-Jun-14 21:59N 49°17' W 123°13'0 0.0
2018-Jun-14 21:29N 49°17' W 123°13'0 0.0
2018-Jun-14 20:59N 49°17' W 123°13'0 0.0
2018-Jun-14 20:26N 49°17' W 123°13'0 0.0
2018-Jun-14 19:59N 49°17' W 123°13'0 0.0
2018-Jun-14 19:29N 49°17' W 123°13'0 0.1
2018-Jun-14 18:56N 49°17' W 123°13'0 0.0
2018-Jun-14 18:29N 49°17' W 123°13'0 0.0
2018-Jun-14 17:59N 49°17' W 123°13'0 0.1
2018-Jun-14 17:29N 49°17' W 123°13'0 0.0
2018-Jun-14 16:59N 49°17' W 123°13'0 0.1
2018-Jun-14 16:29N 49°17' W 123°13'0 0.1
2018-Jun-14 15:53N 49°17' W 123°13'0 0.0
2018-Jun-14 15:26N 49°17' W 123°13'0 0.0
2018-Jun-14 14:59N 49°17' W 123°13'0 0.0
2018-Jun-14 14:26N 49°17' W 123°13'0 0.1
2018-Jun-14 13:59N 49°17' W 123°13'0 0.0
2018-Jun-14 13:26N 49°17' W 123°13'0 0.1
2018-Jun-14 12:59N 49°17' W 123°13'0 0.1
2018-Jun-14 12:29N 49°17' W 123°13'0 0.3
2018-Jun-14 11:56N 49°17' W 123°13'0 0.0
2018-Jun-14 11:29N 49°17' W 123°13'0 0.0
2018-Jun-14 10:59N 49°17' W 123°13'0 0.0
2018-Jun-14 10:29N 49°17' W 123°13'0 0.1
2018-Jun-14 09:56N 49°17' W 123°13'0 0.1
2018-Jun-14 09:29N 49°17' W 123°13'0 0.1
2018-Jun-14 08:59N 49°17' W 123°13'0 0.2
2018-Jun-14 08:29N 49°17' W 123°13'0 0.1
2018-Jun-14 07:59N 49°17' W 123°13'0 0.0
2018-Jun-14 07:29N 49°17' W 123°13'0 0.1
2018-Jun-14 06:59N 49°17' W 123°13'0 0.0
2018-Jun-14 06:29N 49°17' W 123°13'0 0.1
2018-Jun-14 05:56N 49°17' W 123°13'0 0.1
2018-Jun-14 05:29N 49°17' W 123°13'0 0.0
2018-Jun-14 04:59N 49°17' W 123°13'0 0.0
2018-Jun-14 04:29N 49°17' W 123°13'0 0.1
2018-Jun-14 03:59N 49°17' W 123°13'0 0.1
2018-Jun-14 03:29N 49°17' W 123°13'0 0.1
2018-Jun-14 02:59N 49°17' W 123°13'0 0.1
2018-Jun-14 02:29N 49°17' W 123°13'0 0.0
2018-Jun-14 01:59N 49°17' W 123°13'0 0.0
2018-Jun-14 01:29N 49°17' W 123°13'0 0.0
2018-Jun-14 00:56N 49°17' W 123°13'0 0.0
2018-Jun-14 00:29N 49°17' W 123°13'0 0.0
2018-Jun-13 23:56N 49°17' W 123°13'0 0.0
2018-Jun-13 23:29N 49°17' W 123°13'0 0.1
2018-Jun-13 22:59N 49°17' W 123°13'0 0.2
2018-Jun-13 22:29N 49°17' W 123°13'0 0.3
2018-Jun-13 21:59N 49°17' W 123°13'0 0.0
2018-Jun-13 21:26N 49°17' W 123°13'0 0.1
2018-Jun-13 20:59N 49°17' W 123°13'0 0.0
2018-Jun-13 20:29N 49°17' W 123°13'0 0.0
2018-Jun-13 19:50N 49°17' W 123°13'0 0.0
2018-Jun-13 19:29N 49°17' W 123°13'0 0.0
2018-Jun-13 18:59N 49°17' W 123°13'0 0.0
2018-Jun-13 18:29N 49°17' W 123°13'0 0.0
2018-Jun-13 17:59N 49°17' W 123°13'0 0.0
2018-Jun-13 17:26N 49°17' W 123°13'0 0.0
2018-Jun-13 16:59N 49°17' W 123°13'0 0.0
2018-Jun-13 16:26N 49°17' W 123°13'0 0.0
2018-Jun-13 15:59N 49°17' W 123°13'0 0.0
2018-Jun-13 15:26N 49°17' W 123°13'0 0.0
2018-Jun-13 14:56N 49°17' W 123°13'0 0.0
2018-Jun-13 14:29N 49°17' W 123°13'0 0.0
2018-Jun-13 13:50N 49°17' W 123°13'0 0.0
2018-Jun-13 13:26N 49°17' W 123°13'0 0.0
2018-Jun-13 12:53N 49°17' W 123°13'0 0.1
2018-Jun-13 12:29N 49°17' W 123°13'0 0.1
2018-Jun-13 11:56N 49°17' W 123°13'0 0.0
2018-Jun-13 11:26N 49°17' W 123°13'0 0.2
2018-Jun-13 10:59N 49°17' W 123°13'0 0.1
2018-Jun-13 10:29N 49°17' W 123°13'0 0.0
2018-Jun-13 09:59N 49°17' W 123°13'0 0.0
2018-Jun-13 09:23N 49°17' W 123°13'0 0.0
2018-Jun-13 08:59N 49°17' W 123°13'0 0.1
2018-Jun-13 08:29N 49°17' W 123°13'0 0.1
2018-Jun-13 07:56N 49°17' W 123°13'0 0.0
2018-Jun-13 07:29N 49°17' W 123°13'0 0.0
2018-Jun-13 06:56N 49°17' W 123°13'0 0.0
2018-Jun-13 06:29N 49°17' W 123°13'0 0.0
2018-Jun-13 05:59N 49°17' W 123°13'0 0.1
2018-Jun-13 05:29N 49°17' W 123°13'0 0.1
2018-Jun-13 04:56N 49°17' W 123°13'0 0.0
2018-Jun-13 04:29N 49°17' W 123°13'0 0.1
2018-Jun-13 03:59N 49°17' W 123°13'0 0.0
2018-Jun-13 03:29N 49°17' W 123°13'0 0.1
2018-Jun-13 02:59N 49°17' W 123°13'0 0.2
2018-Jun-13 02:29N 49°17' W 123°13'0 0.1
2018-Jun-13 01:59N 49°17' W 123°13'0 0.1
2018-Jun-13 01:29N 49°17' W 123°13'0 0.0
2018-Jun-13 00:59N 49°17' W 123°13'0 0.2
2018-Jun-13 00:29N 49°17' W 123°13'0 0.1
2018-Jun-12 23:53N 49°17' W 123°13'0 0.1
2018-Jun-12 23:26N 49°17' W 123°13'  
Track history (hours):
 
Tides and Currents Weather Stations Pressure Air Temp Water Temp Dewpoint Dewpoint Depression Visibility Wind Speed Wind Dir Waves Ship Positions

Chang Sheng

Last reported at 2018-Jun-22 22:59 UTC. Time now 2018-Jun-22 23:00 UTC.
Position N 33°03' W 125°22'.

Length 225 m; draft 7.2 m.

Type: Cargo ship. MMSI: 352723000.

Date/timePositionNaut miles runAvg speedWind from/ knotsBaromVisibWave heightAir tempDewpointWater temp
2018-Jun-22 22:59N 33°03' W 125°22'912.4
2018-Jun-22 22:13N 33°11' W 125°27'612.2
2018-Jun-22 21:42N 33°17' W 125°30'1312.6
2018-Jun-22 20:39N 33°29' W 125°38'312.7
2018-Jun-22 20:26N 33°31' W 125°39'2412.5
2018-Jun-22 18:33N 33°52' W 125°52'112.1
2018-Jun-22 18:30N 33°52' W 125°53'912.3
2018-Jun-22 17:46N 34°01' W 125°57'312.3
2018-Jun-22 17:29N 34°04' W 125°59'612.3
2018-Jun-22 17:00N 34°09' W 126°03'712.3
2018-Jun-22 16:25N 34°15' W 126°07'612.6
2018-Jun-22 15:55N 34°21' W 126°10'512.9
2018-Jun-22 15:30N 34°25' W 126°13'712.7
2018-Jun-22 15:00N 34°31' W 126°17'712.7
2018-Jun-22 14:27N 34°37' W 126°21'612.6
2018-Jun-22 14:00N 34°42' W 126°24'712.6
2018-Jun-22 13:29N 34°48' W 126°27'612.5
2018-Jun-22 13:00N 34°54' W 126°31'612.5
2018-Jun-22 12:29N 34°59' W 126°34'612.7
2018-Jun-22 12:00N 35°05' W 126°38'1312.8
2018-Jun-22 11:01N 35°16' W 126°45'012.5
2018-Jun-22 11:00N 35°16' W 126°45'2512.9
2018-Jun-22 09:05N 35°38' W 126°59'112.8
2018-Jun-22 08:59N 35°39' W 126°60'5113.0
2018-Jun-22 05:02N 36°27' W 127°22'013.2
2018-Jun-22 05:00N 36°28' W 127°22'44912.7
2018-Jun-20 17:33N 43°46' W 129°30'18011.6
2018-Jun-20 02:05N 46°45' W 129°00'112.4
2018-Jun-20 02:00N 46°45' W 128°59'612.2
2018-Jun-20 01:29N 46°49' W 128°51'612.1
2018-Jun-20 01:00N 46°52' W 128°44'912.1
2018-Jun-20 00:17N 46°57' W 128°34'312.1
2018-Jun-20 00:00N 46°59' W 128°30'612.1
2018-Jun-19 23:29N 47°03' W 128°22'612.2
2018-Jun-19 23:00N 47°06' W 128°15'612.2
2018-Jun-19 22:30N 47°10' W 128°08'612.1
2018-Jun-19 22:00N 47°13' W 128°01'1012.1
2018-Jun-19 21:09N 47°19' W 127°48'312.2
2018-Jun-19 20:55N 47°21' W 127°45'512.2
2018-Jun-19 20:30N 47°24' W 127°39'612.3
2018-Jun-19 20:00N 47°28' W 127°31'612.2
2018-Jun-19 19:30N 47°31' W 127°24'612.2
2018-Jun-19 19:00N 47°35' W 127°17'612.4
2018-Jun-19 18:30N 47°38' W 127°09'1012.6
2018-Jun-19 17:45N 47°44' W 126°58'312.7
2018-Jun-19 17:30N 47°46' W 126°54'612.7
2018-Jun-19 17:00N 47°49' W 126°47'1112.4
2018-Jun-19 16:05N 47°56' W 126°33'112.4
2018-Jun-19 16:00N 47°57' W 126°31'912.3
2018-Jun-19 15:14N 48°02' W 126°20'312.3
2018-Jun-19 15:00N 48°04' W 126°17'812.1
2018-Jun-19 14:22N 48°08' W 126°07'412.2
2018-Jun-19 14:00N 48°11' W 126°02'712.1
2018-Jun-19 13:23N 48°15' W 125°53'511.9
2018-Jun-19 12:58N 48°18' W 125°46'511.6
2018-Jun-19 12:30N 48°21' W 125°40'611.7
2018-Jun-19 12:00N 48°25' W 125°33'612.1
2018-Jun-19 11:30N 48°28' W 125°26'612.3
2018-Jun-19 11:00N 48°31' W 125°17'612.4
2018-Jun-19 10:30N 48°31' W 125°08'712.6
2018-Jun-19 09:57N 48°31' W 124°58'612.5
2018-Jun-19 09:30N 48°31' W 124°49'612.3
2018-Jun-19 09:00N 48°30' W 124°40'612.5
2018-Jun-19 08:30N 48°27' W 124°31'612.7
2018-Jun-19 08:00N 48°25' W 124°23'612.5
2018-Jun-19 07:30N 48°22' W 124°14'612.2
2018-Jun-19 07:00N 48°20' W 124°05'612.1
2018-Jun-19 06:30N 48°18' W 123°57'611.9
2018-Jun-19 06:00N 48°17' W 123°48'711.6
2018-Jun-19 05:25N 48°16' W 123°38'10 7.9
2018-Jun-19 04:07N 48°22' W 123°25'3 7.4
2018-Jun-19 03:45N 48°23' W 123°22'2 7.4
2018-Jun-19 03:30N 48°23' W 123°19'4 8.6
2018-Jun-19 03:00N 48°25' W 123°13'611.1
2018-Jun-19 02:30N 48°30' W 123°12'5 9.9
2018-Jun-19 02:00N 48°35' W 123°14'510.9
2018-Jun-19 01:30N 48°40' W 123°16'5 9.8
2018-Jun-19 01:00N 48°44' W 123°10'610.6
2018-Jun-19 00:28N 48°46' W 123°03'4 9.1
2018-Jun-19 00:00N 48°51' W 123°03'612.3
2018-Jun-18 23:30N 48°55' W 123°10'612.5
2018-Jun-18 23:00N 48°59' W 123°17'712.9
2018-Jun-18 22:30N 49°04' W 123°23'712.9
2018-Jun-18 21:59N 49°11' W 123°22'12 9.9
2018-Jun-18 20:46N 49°19' W 123°08'2 9.0
2018-Jun-18 20:30N 49°18' W 123°05'1 2.8
2018-Jun-18 20:00N 49°18' W 123°03'0 0.0
2018-Jun-18 19:28N 49°18' W 123°03'0 0.0
2018-Jun-18 18:58N 49°18' W 123°03'0 0.0
2018-Jun-18 18:29N 49°18' W 123°03'0 0.0
2018-Jun-18 17:58N 49°18' W 123°03'0 0.0
2018-Jun-18 17:28N 49°18' W 123°03'0 0.0
2018-Jun-18 16:58N 49°18' W 123°03'0 0.0
2018-Jun-18 16:28N 49°18' W 123°03'0 0.0
2018-Jun-18 15:58N 49°18' W 123°03'0 0.0
2018-Jun-18 15:28N 49°18' W 123°03'0 0.0
2018-Jun-18 14:55N 49°18' W 123°03'0 0.0
2018-Jun-18 14:28N 49°18' W 123°03'0 0.0
2018-Jun-18 13:58N 49°18' W 123°03'0 0.0
2018-Jun-18 13:28N 49°18' W 123°03'0 0.0
2018-Jun-18 12:58N 49°18' W 123°03'0 0.0
2018-Jun-18 12:28N 49°18' W 123°03'0 0.0
2018-Jun-18 11:58N 49°18' W 123°03'0 0.0
2018-Jun-18 11:25N 49°18' W 123°03'0 0.0
2018-Jun-18 10:58N 49°18' W 123°03'0 0.0
2018-Jun-18 10:28N 49°18' W 123°03'0 0.0
2018-Jun-18 09:58N 49°18' W 123°03'0 0.0
2018-Jun-18 09:25N 49°18' W 123°03'0 0.0
2018-Jun-18 08:55N 49°18' W 123°03'0 0.0
2018-Jun-18 08:28N 49°18' W 123°03'0 0.0
2018-Jun-18 07:55N 49°18' W 123°03'0 0.0
2018-Jun-18 07:28N 49°18' W 123°03'0 0.0
2018-Jun-18 06:58N 49°18' W 123°03'0 0.0
2018-Jun-18 06:28N 49°18' W 123°03'0 0.0
2018-Jun-18 05:55N 49°18' W 123°03'0 0.0
2018-Jun-18 05:28N 49°18' W 123°03'0 0.0
2018-Jun-18 04:58N 49°18' W 123°03'0 0.0
2018-Jun-18 04:28N 49°18' W 123°03'0 0.0
2018-Jun-18 03:55N 49°18' W 123°03'0 0.0
2018-Jun-18 03:28N 49°18' W 123°03'0 0.0
2018-Jun-18 02:58N 49°18' W 123°03'0 0.0
2018-Jun-18 02:28N 49°18' W 123°03'0 0.0
2018-Jun-18 01:58N 49°18' W 123°03'0 0.0
2018-Jun-18 01:28N 49°18' W 123°03'0 0.0
2018-Jun-18 00:55N 49°18' W 123°03'0 0.0
2018-Jun-18 00:28N 49°18' W 123°03'0 0.0
2018-Jun-17 23:58N 49°18' W 123°03'0 0.0
2018-Jun-17 23:28N 49°18' W 123°03'0 0.0
2018-Jun-17 22:58N 49°18' W 123°03'0 0.0
2018-Jun-17 22:28N 49°18' W 123°03'0 0.0
2018-Jun-17 21:58N 49°18' W 123°03'0 0.0
2018-Jun-17 21:28N 49°18' W 123°03'0 0.0
2018-Jun-17 20:58N 49°18' W 123°03'0 0.0
2018-Jun-17 20:28N 49°18' W 123°03'0 0.0
2018-Jun-17 19:58N 49°18' W 123°03'0 0.0
2018-Jun-17 19:28N 49°18' W 123°03'0 0.0
2018-Jun-17 18:58N 49°18' W 123°03'0 0.0
2018-Jun-17 18:25N 49°18' W 123°03'0 0.0
2018-Jun-17 17:58N 49°18' W 123°03'0 0.0
2018-Jun-17 17:28N 49°18' W 123°03'0 0.0
2018-Jun-17 16:58N 49°18' W 123°03'0 0.0
2018-Jun-17 16:25N 49°18' W 123°03'0 0.0
2018-Jun-17 15:58N 49°18' W 123°03'0 0.0
2018-Jun-17 15:28N 49°18' W 123°03'0 0.0
2018-Jun-17 14:58N 49°18' W 123°03'0 0.0
2018-Jun-17 14:28N 49°18' W 123°03'0 0.0
2018-Jun-17 13:58N 49°18' W 123°03'0 0.0
2018-Jun-17 13:28N 49°18' W 123°03'0 0.0
2018-Jun-17 12:58N 49°18' W 123°03'0 0.0
2018-Jun-17 12:28N 49°18' W 123°03'0 0.0
2018-Jun-17 11:58N 49°18' W 123°03'0 0.0
2018-Jun-17 11:28N 49°18' W 123°03'0 0.0
2018-Jun-17 10:58N 49°18' W 123°03'0 0.0
2018-Jun-17 10:28N 49°18' W 123°03'0 0.0
2018-Jun-17 09:58N 49°18' W 123°03'0 0.0
2018-Jun-17 09:28N 49°18' W 123°03'0 0.0
2018-Jun-17 08:58N 49°18' W 123°03'0 0.0
2018-Jun-17 08:28N 49°18' W 123°03'0 0.0
2018-Jun-17 07:58N 49°18' W 123°03'0 0.0
2018-Jun-17 07:28N 49°18' W 123°03'0 0.0
2018-Jun-17 06:58N 49°18' W 123°03'0 0.0
2018-Jun-17 06:28N 49°18' W 123°03'0 0.0
2018-Jun-17 05:58N 49°18' W 123°03'0 0.0
2018-Jun-17 05:28N 49°18' W 123°03'0 0.0
2018-Jun-17 04:58N 49°18' W 123°03'0 0.0
2018-Jun-17 04:28N 49°18' W 123°03'0 0.0
2018-Jun-17 03:58N 49°18' W 123°03'0 0.0
2018-Jun-17 03:28N 49°18' W 123°03'0 0.0
2018-Jun-17 02:58N 49°18' W 123°03'0 0.0
2018-Jun-17 02:28N 49°18' W 123°03'0 0.0
2018-Jun-17 01:58N 49°18' W 123°03'0 0.0
2018-Jun-17 01:28N 49°18' W 123°03'0 0.0
2018-Jun-17 00:58N 49°18' W 123°03'0 0.0
2018-Jun-17 00:28N 49°18' W 123°03'0 0.0
2018-Jun-16 23:58N 49°18' W 123°03'0 0.0
2018-Jun-16 23:28N 49°18' W 123°03'0 0.0
2018-Jun-16 22:58N 49°18' W 123°03'0 0.0
2018-Jun-16 22:28N 49°18' W 123°03'0 0.0
2018-Jun-16 21:58N 49°18' W 123°03'0 0.0
2018-Jun-16 21:28N 49°18' W 123°03'0 0.0
2018-Jun-16 20:58N 49°18' W 123°03'0 0.0
2018-Jun-16 20:28N 49°18' W 123°03'0 0.0
2018-Jun-16 19:58N 49°18' W 123°03'0 0.0
2018-Jun-16 19:28N 49°18' W 123°03'0 0.0
2018-Jun-16 18:58N 49°18' W 123°03'0 0.0
2018-Jun-16 18:28N 49°18' W 123°03'0 0.0
2018-Jun-16 17:58N 49°18' W 123°03'0 0.0
2018-Jun-16 17:28N 49°18' W 123°03'0 0.0
2018-Jun-16 16:58N 49°18' W 123°03'0 0.0
2018-Jun-16 16:28N 49°18' W 123°03'0 0.0
2018-Jun-16 15:58N 49°18' W 123°03'0 0.0
2018-Jun-16 15:28N 49°18' W 123°03'0 0.0
2018-Jun-16 14:58N 49°18' W 123°03'0 0.0
2018-Jun-16 14:28N 49°18' W 123°03'0 0.0
2018-Jun-16 13:58N 49°18' W 123°03'0 0.0
2018-Jun-16 13:28N 49°18' W 123°03'0 0.0
2018-Jun-16 12:58N 49°18' W 123°03'0 0.0
2018-Jun-16 12:28N 49°18' W 123°03'0 0.0
2018-Jun-16 11:58N 49°18' W 123°03'0 0.0
2018-Jun-16 11:25N 49°18' W 123°03'0 0.0
2018-Jun-16 10:55N 49°18' W 123°03'0 0.0
2018-Jun-16 10:28N 49°18' W 123°03'0 0.0
2018-Jun-16 09:58N 49°18' W 123°03'0 0.0
2018-Jun-16 09:28N 49°18' W 123°03'0 0.0
2018-Jun-16 08:58N 49°18' W 123°03'0 0.0
2018-Jun-16 08:25N 49°18' W 123°03'0 0.0
2018-Jun-16 07:58N 49°18' W 123°03'0 0.0
2018-Jun-16 07:25N 49°18' W 123°03'0 0.0
2018-Jun-16 06:52N 49°18' W 123°03'0 0.0
2018-Jun-16 06:25N 49°18' W 123°03'0 0.0
2018-Jun-16 05:58N 49°18' W 123°03'0 0.0
2018-Jun-16 05:28N 49°18' W 123°03'0 0.0
2018-Jun-16 04:55N 49°18' W 123°03'0 0.0
2018-Jun-16 04:28N 49°18' W 123°03'0 0.0
2018-Jun-16 03:58N 49°18' W 123°03'0 0.0
2018-Jun-16 03:28N 49°18' W 123°03'0 0.0
2018-Jun-16 02:58N 49°18' W 123°03'0 0.0
2018-Jun-16 02:28N 49°18' W 123°03'0 0.0
2018-Jun-16 01:58N 49°18' W 123°03'0 0.0
2018-Jun-16 01:28N 49°18' W 123°03'0 0.0
2018-Jun-16 00:58N 49°18' W 123°03'0 0.0
2018-Jun-16 00:28N 49°18' W 123°03'0 0.0
2018-Jun-15 23:58N 49°18' W 123°03'0 0.0
2018-Jun-15 23:25N 49°18' W 123°03'0 0.0
2018-Jun-15 22:55N 49°18' W 123°03'0 0.0
2018-Jun-15 22:28N 49°18' W 123°03'0 0.0
2018-Jun-15 21:58N 49°18' W 123°03'0 0.0
2018-Jun-15 21:28N 49°18' W 123°03'0 0.0
2018-Jun-15 20:58N 49°18' W 123°03'0 0.0
2018-Jun-15 20:28N 49°18' W 123°03'0 0.0
2018-Jun-15 19:58N 49°18' W 123°03'0 0.0
2018-Jun-15 19:28N 49°18' W 123°03'0 0.0
2018-Jun-15 18:58N 49°18' W 123°03'0 0.0
2018-Jun-15 18:28N 49°18' W 123°03'0 0.0
2018-Jun-15 17:58N 49°18' W 123°03'0 0.0
2018-Jun-15 17:25N 49°18' W 123°03'0 0.0
2018-Jun-15 16:58N 49°18' W 123°03'0 0.0
2018-Jun-15 16:28N 49°18' W 123°03'0 0.0
2018-Jun-15 15:58N 49°18' W 123°03'0 0.0
2018-Jun-15 15:28N 49°18' W 123°03'0 0.0
2018-Jun-15 14:58N 49°18' W 123°03'0 0.0
2018-Jun-15 14:28N 49°18' W 123°03'0 0.0
2018-Jun-15 13:58N 49°18' W 123°03'0 0.0
2018-Jun-15 13:28N 49°18' W 123°03'0 0.0
2018-Jun-15 12:58N 49°18' W 123°03'0 0.0
2018-Jun-15 12:28N 49°18' W 123°03'0 0.0
2018-Jun-15 11:58N 49°18' W 123°03'0 0.0
2018-Jun-15 11:28N 49°18' W 123°03'0 0.0
2018-Jun-15 10:58N 49°18' W 123°03'0 0.0
2018-Jun-15 10:28N 49°18' W 123°03'0 0.0
2018-Jun-15 09:58N 49°18' W 123°03'0 0.0
2018-Jun-15 09:28N 49°18' W 123°03'0 0.0
2018-Jun-15 09:00N 49°18' W 123°03'1 2.2
2018-Jun-15 08:30N 49°18' W 123°05'4 7.6
2018-Jun-15 08:00N 49°19' W 123°10'2 4.1
2018-Jun-15 07:30N 49°17' W 123°13'0 0.0
2018-Jun-15 07:00N 49°17' W 123°13'0 0.1
2018-Jun-15 06:29N 49°17' W 123°13'0 0.0
2018-Jun-15 05:59N 49°17' W 123°13'0 0.0
2018-Jun-15 05:29N 49°17' W 123°13'0 0.1
2018-Jun-15 04:59N 49°17' W 123°13'0 0.2
2018-Jun-15 04:29N 49°17' W 123°13'0 0.0
2018-Jun-15 03:59N 49°17' W 123°13'0 0.1
2018-Jun-15 03:29N 49°17' W 123°13'0 0.2
2018-Jun-15 02:53N 49°17' W 123°13'0 0.1
2018-Jun-15 02:29N 49°17' W 123°13'0 0.0
2018-Jun-15 01:53N 49°17' W 123°13'0 0.0
2018-Jun-15 01:26N 49°17' W 123°13'0 0.0
2018-Jun-15 00:59N 49°17' W 123°13'0 0.0
2018-Jun-15 00:29N 49°17' W 123°13'0 0.1
2018-Jun-14 23:59N 49°17' W 123°13'0 0.1
2018-Jun-14 23:29N 49°17' W 123°13'0 0.2
2018-Jun-14 22:59N 49°17' W 123°13'0 0.1
2018-Jun-14 22:29N 49°17' W 123°13'0 0.2
2018-Jun-14 21:59N 49°17' W 123°13'0 0.0
2018-Jun-14 21:29N 49°17' W 123°13'0 0.0
2018-Jun-14 20:59N 49°17' W 123°13'0 0.0
2018-Jun-14 20:26N 49°17' W 123°13'0 0.0
2018-Jun-14 19:59N 49°17' W 123°13'0 0.0
2018-Jun-14 19:29N 49°17' W 123°13'0 0.1
2018-Jun-14 18:56N 49°17' W 123°13'0 0.0
2018-Jun-14 18:29N 49°17' W 123°13'0 0.0
2018-Jun-14 17:59N 49°17' W 123°13'0 0.1
2018-Jun-14 17:29N 49°17' W 123°13'0 0.0
2018-Jun-14 16:59N 49°17' W 123°13'0 0.1
2018-Jun-14 16:29N 49°17' W 123°13'0 0.1
2018-Jun-14 15:53N 49°17' W 123°13'0 0.0
2018-Jun-14 15:26N 49°17' W 123°13'0 0.0
2018-Jun-14 14:59N 49°17' W 123°13'0 0.0
2018-Jun-14 14:26N 49°17' W 123°13'0 0.1
2018-Jun-14 13:59N 49°17' W 123°13'0 0.0
2018-Jun-14 13:26N 49°17' W 123°13'0 0.1
2018-Jun-14 12:59N 49°17' W 123°13'0 0.1
2018-Jun-14 12:29N 49°17' W 123°13'0 0.3
2018-Jun-14 11:56N 49°17' W 123°13'0 0.0
2018-Jun-14 11:29N 49°17' W 123°13'0 0.0
2018-Jun-14 10:59N 49°17' W 123°13'0 0.0
2018-Jun-14 10:29N 49°17' W 123°13'0 0.1
2018-Jun-14 09:56N 49°17' W 123°13'0 0.1
2018-Jun-14 09:29N 49°17' W 123°13'0 0.1
2018-Jun-14 08:59N 49°17' W 123°13'0 0.2
2018-Jun-14 08:29N 49°17' W 123°13'0 0.1
2018-Jun-14 07:59N 49°17' W 123°13'0 0.0
2018-Jun-14 07:29N 49°17' W 123°13'0 0.1
2018-Jun-14 06:59N 49°17' W 123°13'0 0.0
2018-Jun-14 06:29N 49°17' W 123°13'0 0.1
2018-Jun-14 05:56N 49°17' W 123°13'0 0.1
2018-Jun-14 05:29N 49°17' W 123°13'0 0.0
2018-Jun-14 04:59N 49°17' W 123°13'0 0.0
2018-Jun-14 04:29N 49°17' W 123°13'0 0.1
2018-Jun-14 03:59N 49°17' W 123°13'0 0.1
2018-Jun-14 03:29N 49°17' W 123°13'0 0.1
2018-Jun-14 02:59N 49°17' W 123°13'0 0.1
2018-Jun-14 02:29N 49°17' W 123°13'0 0.0
2018-Jun-14 01:59N 49°17' W 123°13'0 0.0
2018-Jun-14 01:29N 49°17' W 123°13'0 0.0
2018-Jun-14 00:56N 49°17' W 123°13'0 0.0
2018-Jun-14 00:29N 49°17' W 123°13'0 0.0
2018-Jun-13 23:56N 49°17' W 123°13'0 0.0
2018-Jun-13 23:29N 49°17' W 123°13'0 0.1
2018-Jun-13 22:59N 49°17' W 123°13'0 0.2
2018-Jun-13 22:29N 49°17' W 123°13'0 0.3
2018-Jun-13 21:59N 49°17' W 123°13'0 0.0
2018-Jun-13 21:26N 49°17' W 123°13'0 0.1
2018-Jun-13 20:59N 49°17' W 123°13'0 0.0
2018-Jun-13 20:29N 49°17' W 123°13'0 0.0
2018-Jun-13 19:50N 49°17' W 123°13'0 0.0
2018-Jun-13 19:29N 49°17' W 123°13'0 0.0
2018-Jun-13 18:59N 49°17' W 123°13'0 0.0
2018-Jun-13 18:29N 49°17' W 123°13'0 0.0
2018-Jun-13 17:59N 49°17' W 123°13'0 0.0
2018-Jun-13 17:26N 49°17' W 123°13'0 0.0
2018-Jun-13 16:59N 49°17' W 123°13'0 0.0
2018-Jun-13 16:26N 49°17' W 123°13'0 0.0
2018-Jun-13 15:59N 49°17' W 123°13'0 0.0
2018-Jun-13 15:26N 49°17' W 123°13'0 0.0
2018-Jun-13 14:56N 49°17' W 123°13'0 0.0
2018-Jun-13 14:29N 49°17' W 123°13'0 0.0
2018-Jun-13 13:50N 49°17' W 123°13'0 0.0
2018-Jun-13 13:26N 49°17' W 123°13'0 0.0
2018-Jun-13 12:53N 49°17' W 123°13'0 0.1
2018-Jun-13 12:29N 49°17' W 123°13'0 0.1
2018-Jun-13 11:56N 49°17' W 123°13'0 0.0
2018-Jun-13 11:26N 49°17' W 123°13'0 0.2
2018-Jun-13 10:59N 49°17' W 123°13'0 0.1
2018-Jun-13 10:29N 49°17' W 123°13'0 0.0
2018-Jun-13 09:59N 49°17' W 123°13'0 0.0
2018-Jun-13 09:23N 49°17' W 123°13'0 0.0
2018-Jun-13 08:59N 49°17' W 123°13'0 0.1
2018-Jun-13 08:29N 49°17' W 123°13'0 0.1
2018-Jun-13 07:56N 49°17' W 123°13'0 0.0
2018-Jun-13 07:29N 49°17' W 123°13'0 0.0
2018-Jun-13 06:56N 49°17' W 123°13'0 0.0
2018-Jun-13 06:29N 49°17' W 123°13'0 0.0
2018-Jun-13 05:59N 49°17' W 123°13'0 0.1
2018-Jun-13 05:29N 49°17' W 123°13'0 0.1
2018-Jun-13 04:56N 49°17' W 123°13'0 0.0
2018-Jun-13 04:29N 49°17' W 123°13'0 0.1
2018-Jun-13 03:59N 49°17' W 123°13'0 0.0
2018-Jun-13 03:29N 49°17' W 123°13'0 0.1
2018-Jun-13 02:59N 49°17' W 123°13'0 0.2
2018-Jun-13 02:29N 49°17' W 123°13'0 0.1
2018-Jun-13 01:59N 49°17' W 123°13'0 0.1
2018-Jun-13 01:29N 49°17' W 123°13'0 0.0
2018-Jun-13 00:59N 49°17' W 123°13'0 0.2
2018-Jun-13 00:29N 49°17' W 123°13'0 0.1
2018-Jun-12 23:53N 49°17' W 123°13'0 0.1
2018-Jun-12 23:26N 49°17' W 123°13'  

Dump ship's entire track history